sensor_id;sensor_type;location;lat;lon;timestamp;pressure;altitude;pressure_sealevel;temperature;humidity
60611;BME280;46439;51.164;13.572;2023-12-04T00:00:44;100773.21;;;0.49;100.00
60611;BME280;46439;51.164;13.572;2023-12-04T00:03:12;100774.89;;;0.36;100.00
60611;BME280;46439;51.164;13.572;2023-12-04T00:05:43;100769.75;;;0.22;100.00
60611;BME280;46439;51.164;13.572;2023-12-04T00:08:12;100763.80;;;0.02;100.00
60611;BME280;46439;51.164;13.572;2023-12-04T00:10:40;100760.81;;;-0.10;100.00
60611;BME280;46439;51.164;13.572;2023-12-04T00:13:08;100761.93;;;-0.17;100.00
60611;BME280;46439;51.164;13.572;2023-12-04T00:15:36;100763.22;;;-0.09;100.00
60611;BME280;46439;51.164;13.572;2023-12-04T00:18:05;100768.59;;;0.06;100.00
60611;BME280;46439;51.164;13.572;2023-12-04T00:20:34;100769.63;;;0.17;100.00
60611;BME280;46439;51.164;13.572;2023-12-04T00:23:02;100763.17;;;0.19;100.00
60611;BME280;46439;51.164;13.572;2023-12-04T00:25:30;100757.73;;;0.06;100.00
60611;BME280;46439;51.164;13.572;2023-12-04T00:28:00;100751.13;;;-0.08;100.00
60611;BME280;46439;51.164;13.572;2023-12-04T00:30:28;100745.36;;;-0.24;100.00
60611;BME280;46439;51.164;13.572;2023-12-04T00:32:57;100736.91;;;-0.30;100.00
60611;BME280;46439;51.164;13.572;2023-12-04T00:35:25;100730.49;;;-0.39;100.00
60611;BME280;46439;51.164;13.572;2023-12-04T00:37:53;100727.59;;;-0.44;100.00
60611;BME280;46439;51.164;13.572;2023-12-04T00:40:21;100723.25;;;-0.60;100.00
60611;BME280;46439;51.164;13.572;2023-12-04T00:42:49;100720.52;;;-0.69;100.00
60611;BME280;46439;51.164;13.572;2023-12-04T00:45:17;100721.23;;;-0.72;100.00
60611;BME280;46439;51.164;13.572;2023-12-04T00:47:46;100726.35;;;-0.65;100.00
60611;BME280;46439;51.164;13.572;2023-12-04T00:50:14;100727.80;;;-0.51;100.00
60611;BME280;46439;51.164;13.572;2023-12-04T00:52:42;100724.52;;;-0.36;100.00
60611;BME280;46439;51.164;13.572;2023-12-04T00:55:11;100720.52;;;-0.22;100.00
60611;BME280;46439;51.164;13.572;2023-12-04T00:57:39;100727.14;;;-0.12;100.00
60611;BME280;46439;51.164;13.572;2023-12-04T01:00:10;100724.61;;;-0.02;100.00
60611;BME280;46439;51.164;13.572;2023-12-04T01:02:38;100723.84;;;0.08;100.00
60611;BME280;46439;51.164;13.572;2023-12-04T01:05:07;100725.98;;;0.16;100.00
60611;BME280;46439;51.164;13.572;2023-12-04T01:07:35;100729.14;;;0.26;100.00
60611;BME280;46439;51.164;13.572;2023-12-04T01:10:05;100731.39;;;0.30;100.00
60611;BME280;46439;51.164;13.572;2023-12-04T01:12:33;100732.99;;;0.20;100.00
60611;BME280;46439;51.164;13.572;2023-12-04T01:15:02;100734.37;;;0.21;100.00
60611;BME280;46439;51.164;13.572;2023-12-04T01:17:31;100739.24;;;0.34;100.00
60611;BME280;46439;51.164;13.572;2023-12-04T01:20:02;100744.63;;;0.39;100.00
60611;BME280;46439;51.164;13.572;2023-12-04T01:22:30;100747.94;;;0.49;100.00
60611;BME280;46439;51.164;13.572;2023-12-04T01:24:58;100753.13;;;0.53;100.00
60611;BME280;46439;51.164;13.572;2023-12-04T01:27:26;100753.30;;;0.56;100.00
60611;BME280;46439;51.164;13.572;2023-12-04T01:29:54;100757.01;;;0.59;100.00
60611;BME280;46439;51.164;13.572;2023-12-04T01:32:23;100758.24;;;0.60;100.00
60611;BME280;46439;51.164;13.572;2023-12-04T01:34:51;100755.58;;;0.57;100.00
60611;BME280;46439;51.164;13.572;2023-12-04T01:37:19;100754.50;;;0.51;100.00
60611;BME280;46439;51.164;13.572;2023-12-04T01:39:47;100748.55;;;0.35;100.00
60611;BME280;46439;51.164;13.572;2023-12-04T01:42:15;100745.63;;;0.23;100.00
60611;BME280;46439;51.164;13.572;2023-12-04T01:44:43;100744.86;;;0.06;100.00
60611;BME280;46439;51.164;13.572;2023-12-04T01:47:12;100740.66;;;-0.13;100.00
60611;BME280;46439;51.164;13.572;2023-12-04T01:49:41;100734.25;;;-0.15;100.00
60611;BME280;46439;51.164;13.572;2023-12-04T01:52:10;100733.44;;;-0.11;100.00
60611;BME280;46439;51.164;13.572;2023-12-04T01:54:39;100731.56;;;-0.06;100.00
60611;BME280;46439;51.164;13.572;2023-12-04T01:57:08;100729.55;;;-0.08;100.00
60611;BME280;46439;51.164;13.572;2023-12-04T01:59:37;100726.36;;;-0.08;100.00
60611;BME280;46439;51.164;13.572;2023-12-04T02:02:06;100725.02;;;-0.06;100.00
60611;BME280;46439;51.164;13.572;2023-12-04T02:04:35;100721.67;;;-0.00;100.00
60611;BME280;46439;51.164;13.572;2023-12-04T02:07:03;100714.42;;;0.06;100.00
60611;BME280;46439;51.164;13.572;2023-12-04T02:09:31;100711.48;;;0.10;100.00
60611;BME280;46439;51.164;13.572;2023-12-04T02:12:00;100703.96;;;0.12;100.00
60611;BME280;46439;51.164;13.572;2023-12-04T02:14:28;100697.36;;;0.01;100.00
60611;BME280;46439;51.164;13.572;2023-12-04T02:16:59;100696.80;;;-0.05;100.00
60611;BME280;46439;51.164;13.572;2023-12-04T02:19:29;100698.02;;;-0.02;100.00
60611;BME280;46439;51.164;13.572;2023-12-04T02:21:57;100692.58;;;0.04;100.00
60611;BME280;46439;51.164;13.572;2023-12-04T02:24:25;100690.38;;;0.05;100.00
60611;BME280;46439;51.164;13.572;2023-12-04T02:26:59;100684.50;;;0.03;100.00
60611;BME280;46439;51.164;13.572;2023-12-04T02:29:34;100675.59;;;0.04;100.00
60611;BME280;46439;51.164;13.572;2023-12-04T02:32:07;100678.50;;;0.05;100.00
60611;BME280;46439;51.164;13.572;2023-12-04T02:34:36;100679.36;;;-0.03;100.00
60611;BME280;46439;51.164;13.572;2023-12-04T02:37:07;100677.56;;;0.04;100.00
60611;BME280;46439;51.164;13.572;2023-12-04T02:39:42;100677.33;;;0.05;100.00
60611;BME280;46439;51.164;13.572;2023-12-04T02:42:46;100669.52;;;0.08;100.00
60611;BME280;46439;51.164;13.572;2023-12-04T02:45:25;100663.90;;;0.04;100.00
60611;BME280;46439;51.164;13.572;2023-12-04T02:49:01;100660.92;;;-0.02;100.00
60611;BME280;46439;51.164;13.572;2023-12-04T02:52:01;100652.89;;;-0.04;100.00
60611;BME280;46439;51.164;13.572;2023-12-04T02:58:07;100630.08;;;-0.15;100.00
60611;BME280;46439;51.164;13.572;2023-12-04T03:00:52;100626.85;;;-0.24;100.00
60611;BME280;46439;51.164;13.572;2023-12-04T03:03:21;100624.45;;;-0.28;100.00
60611;BME280;46439;51.164;13.572;2023-12-04T03:05:49;100628.27;;;-0.33;100.00
60611;BME280;46439;51.164;13.572;2023-12-04T03:08:17;100633.89;;;-0.35;100.00
60611;BME280;46439;51.164;13.572;2023-12-04T03:10:48;100627.17;;;-0.38;100.00
60611;BME280;46439;51.164;13.572;2023-12-04T03:13:16;100622.72;;;-0.41;100.00
60611;BME280;46439;51.164;13.572;2023-12-04T03:15:45;100629.08;;;-0.34;100.00
60611;BME280;46439;51.164;13.572;2023-12-04T03:18:13;100629.89;;;-0.28;100.00
60611;BME280;46439;51.164;13.572;2023-12-04T03:20:41;100626.61;;;-0.26;100.00
60611;BME280;46439;51.164;13.572;2023-12-04T03:23:11;100626.09;;;-0.17;100.00
60611;BME280;46439;51.164;13.572;2023-12-04T03:25:39;100629.32;;;-0.06;100.00
60611;BME280;46439;51.164;13.572;2023-12-04T03:28:10;100623.31;;;0.05;100.00
60611;BME280;46439;51.164;13.572;2023-12-04T03:30:39;100620.00;;;0.16;100.00
60611;BME280;46439;51.164;13.572;2023-12-04T03:33:08;100616.85;;;0.27;100.00
60611;BME280;46439;51.164;13.572;2023-12-04T03:35:36;100609.95;;;0.32;100.00
60611;BME280;46439;51.164;13.572;2023-12-04T03:38:04;100612.48;;;0.31;100.00
60611;BME280;46439;51.164;13.572;2023-12-04T03:40:32;100603.85;;;0.31;100.00
60611;BME280;46439;51.164;13.572;2023-12-04T03:43:01;100602.47;;;0.27;100.00
60611;BME280;46439;51.164;13.572;2023-12-04T03:45:29;100609.40;;;0.27;100.00
60611;BME280;46439;51.164;13.572;2023-12-04T03:47:57;100607.45;;;0.33;100.00
60611;BME280;46439;51.164;13.572;2023-12-04T03:50:25;100604.98;;;0.38;100.00
60611;BME280;46439;51.164;13.572;2023-12-04T03:52:53;100605.80;;;0.39;100.00
60611;BME280;46439;51.164;13.572;2023-12-04T03:55:21;100601.39;;;0.44;100.00
60611;BME280;46439;51.164;13.572;2023-12-04T03:57:49;100602.38;;;0.48;100.00
60611;BME280;46439;51.164;13.572;2023-12-04T04:00:19;100597.95;;;0.51;100.00
60611;BME280;46439;51.164;13.572;2023-12-04T04:02:48;100602.27;;;0.56;100.00
60611;BME280;46439;51.164;13.572;2023-12-04T04:05:22;100598.53;;;0.59;100.00
60611;BME280;46439;51.164;13.572;2023-12-04T04:07:52;100596.80;;;0.64;100.00
60611;BME280;46439;51.164;13.572;2023-12-04T04:10:21;100589.11;;;0.70;100.00
60611;BME280;46439;51.164;13.572;2023-12-04T04:12:49;100587.73;;;0.75;100.00
60611;BME280;46439;51.164;13.572;2023-12-04T04:15:17;100587.65;;;0.76;100.00
60611;BME280;46439;51.164;13.572;2023-12-04T04:17:45;100585.50;;;0.77;100.00
60611;BME280;46439;51.164;13.572;2023-12-04T04:20:14;100582.80;;;0.75;100.00
60611;BME280;46439;51.164;13.572;2023-12-04T04:22:42;100586.51;;;0.61;100.00
60611;BME280;46439;51.164;13.572;2023-12-04T04:25:11;100589.82;;;0.46;100.00
60611;BME280;46439;51.164;13.572;2023-12-04T04:27:39;100584.58;;;0.36;100.00
60611;BME280;46439;51.164;13.572;2023-12-04T04:30:09;100582.27;;;0.30;100.00
60611;BME280;46439;51.164;13.572;2023-12-04T04:32:37;100583.30;;;0.25;100.00
60611;BME280;46439;51.164;13.572;2023-12-04T04:35:06;100580.80;;;0.14;100.00
60611;BME280;46439;51.164;13.572;2023-12-04T04:37:34;100575.99;;;0.14;100.00
60611;BME280;46439;51.164;13.572;2023-12-04T04:40:04;100570.36;;;0.11;100.00
60611;BME280;46439;51.164;13.572;2023-12-04T04:42:33;100564.00;;;-0.03;100.00
60611;BME280;46439;51.164;13.572;2023-12-04T04:45:01;100565.19;;;-0.13;100.00
60611;BME280;46439;51.164;13.572;2023-12-04T04:47:29;100562.73;;;-0.26;100.00
60611;BME280;46439;51.164;13.572;2023-12-04T04:49:57;100565.60;;;-0.35;100.00
60611;BME280;46439;51.164;13.572;2023-12-04T04:52:25;100566.20;;;-0.42;100.00
60611;BME280;46439;51.164;13.572;2023-12-04T04:54:53;100564.66;;;-0.46;100.00
60611;BME280;46439;51.164;13.572;2023-12-04T04:57:22;100568.21;;;-0.51;100.00
60611;BME280;46439;51.164;13.572;2023-12-04T04:59:50;100565.92;;;-0.52;100.00
60611;BME280;46439;51.164;13.572;2023-12-04T05:02:18;100562.48;;;-0.50;100.00
60611;BME280;46439;51.164;13.572;2023-12-04T05:04:46;100564.59;;;-0.50;100.00
60611;BME280;46439;51.164;13.572;2023-12-04T05:07:14;100566.71;;;-0.50;100.00
60611;BME280;46439;51.164;13.572;2023-12-04T05:09:42;100565.19;;;-0.46;100.00
60611;BME280;46439;51.164;13.572;2023-12-04T05:12:10;100563.04;;;-0.48;100.00
60611;BME280;46439;51.164;13.572;2023-12-04T05:14:38;100562.79;;;-0.50;100.00
60611;BME280;46439;51.164;13.572;2023-12-04T05:17:07;100561.09;;;-0.48;100.00
60611;BME280;46439;51.164;13.572;2023-12-04T05:19:35;100556.72;;;-0.49;100.00
60611;BME280;46439;51.164;13.572;2023-12-04T05:22:03;100558.24;;;-0.47;100.00
60611;BME280;46439;51.164;13.572;2023-12-04T05:24:31;100550.98;;;-0.42;100.00
60611;BME280;46439;51.164;13.572;2023-12-04T05:26:59;100547.33;;;-0.43;100.00
60611;BME280;46439;51.164;13.572;2023-12-04T05:29:27;100543.98;;;-0.23;100.00
60611;BME280;46439;51.164;13.572;2023-12-04T05:31:55;100541.39;;;-0.12;100.00
60611;BME280;46439;51.164;13.572;2023-12-04T05:34:25;100531.86;;;-0.01;100.00
60611;BME280;46439;51.164;13.572;2023-12-04T05:36:53;100522.45;;;0.02;100.00
60611;BME280;46439;51.164;13.572;2023-12-04T05:39:21;100512.45;;;-0.05;100.00
60611;BME280;46439;51.164;13.572;2023-12-04T05:41:49;100505.95;;;-0.14;100.00
60611;BME280;46439;51.164;13.572;2023-12-04T05:44:17;100501.25;;;-0.24;100.00
60611;BME280;46439;51.164;13.572;2023-12-04T05:46:45;100500.09;;;-0.28;100.00
60611;BME280;46439;51.164;13.572;2023-12-04T05:49:14;100495.47;;;-0.30;100.00
60611;BME280;46439;51.164;13.572;2023-12-04T05:51:42;100487.21;;;-0.33;100.00
60611;BME280;46439;51.164;13.572;2023-12-04T05:54:10;100486.27;;;-0.36;100.00
60611;BME280;46439;51.164;13.572;2023-12-04T05:56:38;100485.01;;;-0.39;100.00
60611;BME280;46439;51.164;13.572;2023-12-04T05:59:06;100479.05;;;-0.39;100.00
60611;BME280;46439;51.164;13.572;2023-12-04T06:01:34;100479.52;;;-0.41;100.00
60611;BME280;46439;51.164;13.572;2023-12-04T06:04:03;100474.73;;;-0.41;100.00
60611;BME280;46439;51.164;13.572;2023-12-04T06:06:31;100467.92;;;-0.45;100.00
60611;BME280;46439;51.164;13.572;2023-12-04T06:08:59;100461.44;;;-0.49;100.00
60611;BME280;46439;51.164;13.572;2023-12-04T06:11:27;100454.05;;;-0.55;100.00
60611;BME280;46439;51.164;13.572;2023-12-04T06:13:56;100452.27;;;-0.58;100.00
60611;BME280;46439;51.164;13.572;2023-12-04T06:16:24;100454.95;;;-0.55;100.00
60611;BME280;46439;51.164;13.572;2023-12-04T06:18:52;100452.06;;;-0.51;100.00
60611;BME280;46439;51.164;13.572;2023-12-04T06:21:20;100451.52;;;-0.51;100.00
60611;BME280;46439;51.164;13.572;2023-12-04T06:23:50;100454.71;;;-0.51;100.00
60611;BME280;46439;51.164;13.572;2023-12-04T06:26:19;100457.74;;;-0.46;100.00
60611;BME280;46439;51.164;13.572;2023-12-04T06:28:49;100457.27;;;-0.42;100.00
60611;BME280;46439;51.164;13.572;2023-12-04T06:31:18;100456.34;;;-0.38;100.00
60611;BME280;46439;51.164;13.572;2023-12-04T06:33:49;100458.88;;;-0.36;100.00
60611;BME280;46439;51.164;13.572;2023-12-04T06:36:18;100463.05;;;-0.38;100.00
60611;BME280;46439;51.164;13.572;2023-12-04T06:38:50;100467.10;;;-0.40;100.00
60611;BME280;46439;51.164;13.572;2023-12-04T06:41:25;100474.75;;;-0.38;100.00
60611;BME280;46439;51.164;13.572;2023-12-04T06:43:57;100479.09;;;-0.31;100.00
60611;BME280;46439;51.164;13.572;2023-12-04T06:46:28;100475.55;;;-0.26;100.00
60611;BME280;46439;51.164;13.572;2023-12-04T06:49:01;100476.15;;;-0.18;100.00
60611;BME280;46439;51.164;13.572;2023-12-04T06:51:32;100476.11;;;-0.17;100.00
60611;BME280;46439;51.164;13.572;2023-12-04T06:54:00;100468.45;;;-0.19;100.00
60611;BME280;46439;51.164;13.572;2023-12-04T06:56:30;100459.30;;;-0.21;100.00
60611;BME280;46439;51.164;13.572;2023-12-04T06:58:58;100452.54;;;-0.20;100.00
60611;BME280;46439;51.164;13.572;2023-12-04T07:01:29;100455.38;;;-0.14;100.00
60611;BME280;46439;51.164;13.572;2023-12-04T07:03:57;100452.59;;;-0.15;100.00
60611;BME280;46439;51.164;13.572;2023-12-04T07:06:26;100450.42;;;-0.23;100.00
60611;BME280;46439;51.164;13.572;2023-12-04T07:09:05;100450.14;;;-0.13;100.00
60611;BME280;46439;51.164;13.572;2023-12-04T07:11:48;100447.98;;;-0.26;100.00
60611;BME280;46439;51.164;13.572;2023-12-04T07:14:18;100447.70;;;-0.33;100.00
60611;BME280;46439;51.164;13.572;2023-12-04T07:16:47;100441.64;;;-0.38;100.00
60611;BME280;46439;51.164;13.572;2023-12-04T07:19:25;100441.50;;;-0.30;100.00
60611;BME280;46439;51.164;13.572;2023-12-04T07:22:08;100439.60;;;-0.11;100.00
60611;BME280;46439;51.164;13.572;2023-12-04T07:24:38;100436.86;;;0.42;100.00
60611;BME280;46439;51.164;13.572;2023-12-04T07:27:10;100433.18;;;0.44;100.00
60611;BME280;46439;51.164;13.572;2023-12-04T07:29:39;100433.71;;;0.36;100.00
60611;BME280;46439;51.164;13.572;2023-12-04T07:32:08;100426.30;;;0.28;100.00
60611;BME280;46439;51.164;13.572;2023-12-04T07:34:36;100427.34;;;0.25;100.00
60611;BME280;46439;51.164;13.572;2023-12-04T07:37:11;100425.73;;;0.23;100.00
60611;BME280;46439;51.164;13.572;2023-12-04T07:39:40;100425.45;;;0.19;100.00
60611;BME280;46439;51.164;13.572;2023-12-04T07:42:12;100427.33;;;0.15;100.00
60611;BME280;46439;51.164;13.572;2023-12-04T07:44:41;100424.63;;;0.13;100.00
60611;BME280;46439;51.164;13.572;2023-12-04T07:47:09;100423.96;;;0.15;100.00
60611;BME280;46439;51.164;13.572;2023-12-04T07:49:37;100425.85;;;0.18;100.00
60611;BME280;46439;51.164;13.572;2023-12-04T07:52:14;100423.27;;;0.19;100.00
60611;BME280;46439;51.164;13.572;2023-12-04T07:54:50;100422.95;;;0.25;100.00
60611;BME280;46439;51.164;13.572;2023-12-04T07:57:29;100426.85;;;0.30;100.00
60611;BME280;46439;51.164;13.572;2023-12-04T07:59:59;100420.95;;;0.31;100.00
60611;BME280;46439;51.164;13.572;2023-12-04T08:02:31;100415.65;;;0.28;100.00
60611;BME280;46439;51.164;13.572;2023-12-04T08:05:02;100414.60;;;0.25;100.00
60611;BME280;46439;51.164;13.572;2023-12-04T08:07:39;100410.84;;;0.20;100.00
60611;BME280;46439;51.164;13.572;2023-12-04T08:10:11;100408.79;;;0.22;100.00
60611;BME280;46439;51.164;13.572;2023-12-04T08:12:39;100406.44;;;0.26;100.00
60611;BME280;46439;51.164;13.572;2023-12-04T08:15:10;100403.91;;;0.24;100.00
60611;BME280;46439;51.164;13.572;2023-12-04T08:17:38;100404.13;;;0.23;100.00
60611;BME280;46439;51.164;13.572;2023-12-04T08:20:08;100397.69;;;0.27;100.00
60611;BME280;46439;51.164;13.572;2023-12-04T08:22:41;100397.96;;;0.28;100.00
60611;BME280;46439;51.164;13.572;2023-12-04T08:25:26;100397.27;;;0.28;100.00
60611;BME280;46439;51.164;13.572;2023-12-04T08:27:59;100393.45;;;0.24;100.00
60611;BME280;46439;51.164;13.572;2023-12-04T08:30:28;100399.19;;;0.28;100.00
60611;BME280;46439;51.164;13.572;2023-12-04T08:32:56;100401.33;;;0.28;100.00
60611;BME280;46439;51.164;13.572;2023-12-04T08:35:25;100402.32;;;0.29;100.00
60611;BME280;46439;51.164;13.572;2023-12-04T08:37:53;100405.19;;;0.34;100.00
60611;BME280;46439;51.164;13.572;2023-12-04T08:40:21;100396.89;;;0.36;100.00
60611;BME280;46439;51.164;13.572;2023-12-04T08:42:50;100398.44;;;0.36;100.00
60611;BME280;46439;51.164;13.572;2023-12-04T08:45:28;100399.81;;;0.40;100.00
60611;BME280;46439;51.164;13.572;2023-12-04T08:48:01;100395.13;;;0.47;100.00
60611;BME280;46439;51.164;13.572;2023-12-04T08:50:30;100391.76;;;0.57;100.00
60611;BME280;46439;51.164;13.572;2023-12-04T08:52:58;100389.62;;;0.66;100.00
60611;BME280;46439;51.164;13.572;2023-12-04T08:55:26;100392.30;;;0.65;100.00
60611;BME280;46439;51.164;13.572;2023-12-04T08:57:55;100394.65;;;0.69;100.00
60611;BME280;46439;51.164;13.572;2023-12-04T09:00:23;100396.85;;;0.68;100.00
60611;BME280;46439;51.164;13.572;2023-12-04T09:02:55;100396.31;;;0.68;100.00
60611;BME280;46439;51.164;13.572;2023-12-04T09:05:30;100393.08;;;0.69;100.00
60611;BME280;46439;51.164;13.572;2023-12-04T09:07:57;100396.48;;;0.69;100.00
60611;BME280;46439;51.164;13.572;2023-12-04T09:10:26;100390.36;;;0.65;100.00
60611;BME280;46439;51.164;13.572;2023-12-04T09:12:57;100383.04;;;0.60;100.00
60611;BME280;46439;51.164;13.572;2023-12-04T09:15:25;100386.85;;;0.59;100.00
60611;BME280;46439;51.164;13.572;2023-12-04T09:17:53;100387.63;;;0.56;100.00
60611;BME280;46439;51.164;13.572;2023-12-04T09:20:22;100387.59;;;0.48;100.00
60611;BME280;46439;51.164;13.572;2023-12-04T09:22:58;100386.80;;;0.46;100.00
60611;BME280;46439;51.164;13.572;2023-12-04T09:25:37;100389.06;;;0.50;100.00
60611;BME280;46439;51.164;13.572;2023-12-04T09:28:08;100390.17;;;0.57;100.00
60611;BME280;46439;51.164;13.572;2023-12-04T09:30:37;100387.65;;;0.76;100.00
60611;BME280;46439;51.164;13.572;2023-12-04T09:33:05;100377.77;;;0.83;100.00
60611;BME280;46439;51.164;13.572;2023-12-04T09:35:34;100380.14;;;0.87;100.00
60611;BME280;46439;51.164;13.572;2023-12-04T09:38:03;100376.96;;;0.92;100.00
60611;BME280;46439;51.164;13.572;2023-12-04T09:40:32;100370.13;;;0.94;100.00
60611;BME280;46439;51.164;13.572;2023-12-04T09:43:01;100367.27;;;0.94;100.00
60611;BME280;46439;51.164;13.572;2023-12-04T09:45:30;100363.73;;;0.99;100.00
60611;BME280;46439;51.164;13.572;2023-12-04T09:48:00;100360.17;;;1.02;100.00
60611;BME280;46439;51.164;13.572;2023-12-04T09:50:29;100357.63;;;1.03;100.00
60611;BME280;46439;51.164;13.572;2023-12-04T09:53:01;100356.23;;;1.07;100.00
60611;BME280;46439;51.164;13.572;2023-12-04T09:55:30;100352.08;;;1.19;100.00
60611;BME280;46439;51.164;13.572;2023-12-04T09:57:59;100346.41;;;1.23;100.00
60611;BME280;46439;51.164;13.572;2023-12-04T10:00:28;100342.57;;;1.28;100.00
60611;BME280;46439;51.164;13.572;2023-12-04T10:02:57;100332.61;;;1.28;100.00
60611;BME280;46439;51.164;13.572;2023-12-04T10:05:25;100327.16;;;1.32;100.00
60611;BME280;46439;51.164;13.572;2023-12-04T10:07:54;100318.91;;;1.36;100.00
60611;BME280;46439;51.164;13.572;2023-12-04T10:10:30;100312.88;;;1.39;100.00
60611;BME280;46439;51.164;13.572;2023-12-04T10:13:05;100307.50;;;1.40;100.00
60611;BME280;46439;51.164;13.572;2023-12-04T10:16:06;100302.91;;;1.44;100.00
60611;BME280;46439;51.164;13.572;2023-12-04T10:18:44;100298.77;;;1.96;100.00
60611;BME280;46439;51.164;13.572;2023-12-04T10:21:15;100297.33;;;2.05;100.00
60611;BME280;46439;51.164;13.572;2023-12-04T10:23:44;100286.98;;;2.06;100.00
60611;BME280;46439;51.164;13.572;2023-12-04T10:26:15;100284.02;;;2.05;100.00
60611;BME280;46439;51.164;13.572;2023-12-04T10:29:00;100280.89;;;2.00;100.00
60611;BME280;46439;51.164;13.572;2023-12-04T10:31:33;100277.59;;;1.92;100.00
60611;BME280;46439;51.164;13.572;2023-12-04T10:34:12;100277.48;;;1.89;100.00
60611;BME280;46439;51.164;13.572;2023-12-04T10:36:42;100275.83;;;1.94;100.00
60611;BME280;46439;51.164;13.572;2023-12-04T10:39:10;100276.98;;;1.92;100.00
60611;BME280;46439;51.164;13.572;2023-12-04T10:41:46;100275.40;;;1.93;100.00
60611;BME280;46439;51.164;13.572;2023-12-04T10:44:30;100274.52;;;1.93;100.00
60611;BME280;46439;51.164;13.572;2023-12-04T10:47:01;100269.16;;;2.02;100.00
60611;BME280;46439;51.164;13.572;2023-12-04T10:49:30;100264.36;;;2.07;100.00
60611;BME280;46439;51.164;13.572;2023-12-04T10:52:00;100262.55;;;2.12;100.00
60611;BME280;46439;51.164;13.572;2023-12-04T10:54:31;100257.00;;;2.16;100.00
60611;BME280;46439;51.164;13.572;2023-12-04T10:57:07;100254.59;;;2.21;100.00
60611;BME280;46439;51.164;13.572;2023-12-04T10:59:38;100255.29;;;2.28;100.00
60611;BME280;46439;51.164;13.572;2023-12-04T11:02:08;100253.38;;;2.35;100.00
60611;BME280;46439;51.164;13.572;2023-12-04T11:04:45;100255.16;;;2.37;100.00
60611;BME280;46439;51.164;13.572;2023-12-04T11:07:20;100254.20;;;2.33;100.00
60611;BME280;46439;51.164;13.572;2023-12-04T11:10:01;100252.19;;;2.34;100.00
60611;BME280;46439;51.164;13.572;2023-12-04T11:12:42;100246.33;;;2.39;100.00
60611;BME280;46439;51.164;13.572;2023-12-04T11:15:15;100238.65;;;2.37;100.00
60611;BME280;46439;51.164;13.572;2023-12-04T11:17:44;100233.27;;;2.40;100.00
60611;BME280;46439;51.164;13.572;2023-12-04T11:20:18;100227.93;;;2.42;100.00
60611;BME280;46439;51.164;13.572;2023-12-04T11:22:52;100218.17;;;2.42;100.00
60611;BME280;46439;51.164;13.572;2023-12-04T11:25:26;100216.60;;;2.42;100.00
60611;BME280;46439;51.164;13.572;2023-12-04T11:27:58;100216.50;;;2.41;100.00
60611;BME280;46439;51.164;13.572;2023-12-04T11:30:39;100208.58;;;2.40;100.00
60611;BME280;46439;51.164;13.572;2023-12-04T11:33:10;100206.63;;;2.54;100.00
60611;BME280;46439;51.164;13.572;2023-12-04T11:35:42;100204.66;;;2.58;100.00
60611;BME280;46439;51.164;13.572;2023-12-04T11:38:19;100193.52;;;2.60;100.00
60611;BME280;46439;51.164;13.572;2023-12-04T11:40:48;100192.83;;;2.62;100.00
60611;BME280;46439;51.164;13.572;2023-12-04T11:43:31;100181.81;;;2.66;100.00
60611;BME280;46439;51.164;13.572;2023-12-04T11:46:16;100174.42;;;2.59;100.00
60611;BME280;46439;51.164;13.572;2023-12-04T11:49:31;100170.81;;;2.64;100.00
60611;BME280;46439;51.164;13.572;2023-12-04T11:52:09;100169.39;;;2.59;100.00
60611;BME280;46439;51.164;13.572;2023-12-04T11:55:03;100163.91;;;2.57;100.00
60611;BME280;46439;51.164;13.572;2023-12-04T11:57:45;100157.71;;;2.57;100.00
60611;BME280;46439;51.164;13.572;2023-12-04T12:00:28;100150.40;;;2.53;100.00
60611;BME280;46439;51.164;13.572;2023-12-04T12:03:08;100144.88;;;2.53;100.00
60611;BME280;46439;51.164;13.572;2023-12-04T12:11:31;100139.39;;;2.57;100.00
60611;BME280;46439;51.164;13.572;2023-12-04T12:14:04;100134.97;;;2.59;100.00
60611;BME280;46439;51.164;13.572;2023-12-04T12:16:41;100134.54;;;2.57;100.00
60611;BME280;46439;51.164;13.572;2023-12-04T12:19:15;100130.23;;;2.60;100.00
60611;BME280;46439;51.164;13.572;2023-12-04T12:21:53;100122.80;;;2.62;100.00
60611;BME280;46439;51.164;13.572;2023-12-04T12:24:25;100121.31;;;2.58;100.00
60611;BME280;46439;51.164;13.572;2023-12-04T12:27:00;100119.52;;;2.59;100.00
60611;BME280;46439;51.164;13.572;2023-12-04T12:29:33;100117.60;;;2.58;100.00
60611;BME280;46439;51.164;13.572;2023-12-04T12:32:08;100115.34;;;2.62;100.00
60611;BME280;46439;51.164;13.572;2023-12-04T12:34:48;100111.57;;;2.65;100.00
60611;BME280;46439;51.164;13.572;2023-12-04T12:37:38;100110.79;;;2.68;100.00
60611;BME280;46439;51.164;13.572;2023-12-04T12:40:17;100108.93;;;2.71;100.00
60611;BME280;46439;51.164;13.572;2023-12-04T12:42:51;100112.02;;;2.70;100.00
60611;BME280;46439;51.164;13.572;2023-12-04T12:45:20;100109.20;;;2.74;100.00
60611;BME280;46439;51.164;13.572;2023-12-04T12:47:49;100111.82;;;2.73;100.00
60611;BME280;46439;51.164;13.572;2023-12-04T12:50:19;100109.44;;;2.73;100.00
60611;BME280;46439;51.164;13.572;2023-12-04T12:52:50;100107.13;;;2.69;100.00
60611;BME280;46439;51.164;13.572;2023-12-04T12:55:25;100109.70;;;2.68;100.00
60611;BME280;46439;51.164;13.572;2023-12-04T12:57:56;100112.63;;;2.69;100.00
60611;BME280;46439;51.164;13.572;2023-12-04T13:00:25;100109.21;;;2.70;100.00
60611;BME280;46439;51.164;13.572;2023-12-04T13:02:55;100111.16;;;2.76;100.00
60611;BME280;46439;51.164;13.572;2023-12-04T13:05:23;100115.72;;;2.75;100.00